createdAt,value
2022-10-08T00:01:08.482Z,10.4
2022-10-08T00:02:16.849Z,10.4
2022-10-08T00:03:25.142Z,10.4
2022-10-08T00:04:33.703Z,11
2022-10-08T00:05:41.993Z,11
2022-10-08T00:06:50.334Z,11
2022-10-08T00:07:58.860Z,11
2022-10-08T00:09:07.191Z,11
2022-10-08T00:10:15.519Z,11
2022-10-08T00:11:24.079Z,12
2022-10-08T00:12:32.407Z,12
2022-10-08T00:13:40.856Z,12
2022-10-08T00:14:49.243Z,12.1
2022-10-08T00:15:57.569Z,12.1
2022-10-08T00:17:05.888Z,12.1
2022-10-08T00:18:14.436Z,12.4
2022-10-08T00:19:22.769Z,12.4
2022-10-08T00:20:31.085Z,12.4
2022-10-08T00:21:39.614Z,12.7
2022-10-08T00:22:48.328Z,12.7
2022-10-08T00:23:56.247Z,12.7
2022-10-08T00:25:04.774Z,13.8
2022-10-08T00:26:13.097Z,13.8
2022-10-08T00:27:21.438Z,13.8
2022-10-08T00:28:30.090Z,13
2022-10-08T00:29:38.289Z,13
2022-10-08T00:30:46.622Z,13
2022-10-08T00:31:55.222Z,13.4
2022-10-08T00:33:03.492Z,13.4
2022-10-08T00:34:11.813Z,13.4
2022-10-08T00:35:20.329Z,14.5
2022-10-08T00:36:28.678Z,14.5
2022-10-08T00:37:37.018Z,14.5
2022-10-08T00:38:45.693Z,13.7
2022-10-08T00:39:53.895Z,13.7
2022-10-08T00:41:02.212Z,13.7
2022-10-08T00:42:10.772Z,14.3
2022-10-08T00:43:21.733Z,14.3
2022-10-08T00:44:27.431Z,14.3
2022-10-08T00:45:36.007Z,14.2
2022-10-08T00:46:44.309Z,14.2
2022-10-08T00:47:52.614Z,14.2
2022-10-08T00:49:01.139Z,13.5
2022-10-08T00:50:09.450Z,13.5
2022-10-08T00:51:17.778Z,13.5
2022-10-08T00:52:26.293Z,14.6
2022-10-08T00:53:34.617Z,14.6
2022-10-08T00:54:42.975Z,14.6
2022-10-08T00:55:51.500Z,15.8
2022-10-08T00:56:59.841Z,15.8
2022-10-08T00:58:08.172Z,15.8
2022-10-08T00:59:16.699Z,16.1
2022-10-08T01:00:25.021Z,16.1
2022-10-08T01:01:33.369Z,16.1
2022-10-08T01:02:41.909Z,16.700001
2022-10-08T01:03:50.231Z,16.700001
2022-10-08T01:04:58.554Z,16.700001
2022-10-08T01:06:07.094Z,15.3
2022-10-08T01:07:15.399Z,15.3
2022-10-08T01:08:23.719Z,15.3
2022-10-08T01:09:32.261Z,16.9
2022-10-08T01:10:40.613Z,16.9
2022-10-08T01:11:48.904Z,16.9
2022-10-08T01:12:57.426Z,17.200001
2022-10-08T01:14:05.764Z,17.200001
2022-10-08T01:15:14.116Z,17.200001
2022-10-08T01:16:22.703Z,17.700001
2022-10-08T01:17:30.970Z,17.700001
2022-10-08T01:18:39.297Z,17.700001
2022-10-08T01:19:47.811Z,17.299999
2022-10-08T01:20:56.146Z,17.299999
2022-10-08T01:22:04.467Z,17.299999
2022-10-08T01:23:12.991Z,19.5
2022-10-08T01:24:21.323Z,19.5
2022-10-08T01:25:29.647Z,19.5
2022-10-08T01:26:38.198Z,18.799999
2022-10-08T01:27:46.493Z,18.799999
2022-10-08T01:28:54.800Z,18.799999
2022-10-08T01:30:03.335Z,18.4
2022-10-08T01:31:11.740Z,18.4
2022-10-08T01:32:19.978Z,18.4
2022-10-08T01:33:28.517Z,18.4
2022-10-08T01:34:36.841Z,18.4
2022-10-08T01:35:45.188Z,18.4
2022-10-08T01:36:53.714Z,20
2022-10-08T01:38:02.032Z,20
2022-10-08T01:39:10.349Z,20
2022-10-08T01:40:18.880Z,21.799999
2022-10-08T01:41:27.197Z,21.799999
2022-10-08T01:42:35.660Z,21.799999
2022-10-08T01:43:44.078Z,21.4
2022-10-08T01:44:52.390Z,21.4
2022-10-08T01:46:00.758Z,21.4
2022-10-08T01:47:09.243Z,20.799999
2022-10-08T01:48:17.561Z,20.799999
2022-10-08T01:49:25.861Z,20.799999
2022-10-08T01:50:34.397Z,21.700001
2022-10-08T01:51:42.724Z,21.700001
2022-10-08T01:52:51.032Z,21.700001
2022-10-08T01:53:59.548Z,21.299999
2022-10-08T01:55:07.868Z,21.299999
2022-10-08T01:56:16.196Z,21.299999
2022-10-08T01:57:24.739Z,21.5
2022-10-08T01:58:33.067Z,21.5
2022-10-08T01:59:41.364Z,21.5
2022-10-08T02:00:49.971Z,22
2022-10-08T02:01:58.336Z,22
2022-10-08T02:03:06.575Z,22
2022-10-08T02:04:15.106Z,22.200001
2022-10-08T02:05:23.451Z,22.200001
2022-10-08T02:06:31.761Z,22.200001
2022-10-08T02:07:40.308Z,22.799999
2022-10-08T02:08:48.629Z,22.799999
2022-10-08T02:09:56.946Z,22.799999
2022-10-08T02:11:05.472Z,23.9
2022-10-08T02:12:13.805Z,23.9
2022-10-08T02:13:22.145Z,23.9
2022-10-08T02:14:30.709Z,25.299999
2022-10-08T02:15:39.037Z,25.299999
2022-10-08T02:16:47.408Z,25.299999
2022-10-08T02:17:55.912Z,24
2022-10-08T02:19:04.229Z,24
2022-10-08T02:20:12.567Z,24
2022-10-08T02:21:21.099Z,23.5
2022-10-08T02:22:29.417Z,23.5
2022-10-08T02:23:37.720Z,23.5
2022-10-08T02:24:46.247Z,23.700001
2022-10-08T02:25:54.601Z,23.700001
2022-10-08T02:27:02.918Z,23.700001
2022-10-08T02:28:11.485Z,24.200001
2022-10-08T02:29:19.762Z,24.200001
2022-10-08T02:30:28.117Z,24.200001
2022-10-08T02:31:36.651Z,24
2022-10-08T02:32:45.261Z,24
2022-10-08T02:33:53.274Z,24
2022-10-08T02:35:01.816Z,22.799999
2022-10-08T02:36:10.131Z,22.799999
2022-10-08T02:37:18.471Z,22.799999
2022-10-08T02:38:27.004Z,23.299999
2022-10-08T02:39:35.327Z,23.299999
2022-10-08T02:40:43.640Z,23.299999
2022-10-08T02:41:52.194Z,23
2022-10-08T02:43:00.535Z,23
2022-10-08T02:44:08.876Z,23
2022-10-08T02:45:17.417Z,24.299999
2022-10-08T02:46:25.755Z,24.299999
2022-10-08T02:47:34.059Z,24.299999
2022-10-08T02:48:42.595Z,23.4
2022-10-08T02:49:50.936Z,23.4
2022-10-08T02:50:59.264Z,23.4
2022-10-08T02:52:07.796Z,23
2022-10-08T02:53:16.129Z,23
2022-10-08T02:54:24.444Z,23
2022-10-08T02:55:32.959Z,23.200001
2022-10-08T02:56:41.274Z,23.200001
2022-10-08T02:57:49.594Z,23.200001
2022-10-08T02:58:58.123Z,22.5
2022-10-08T03:00:06.454Z,22.5
2022-10-08T03:01:14.861Z,22.5
2022-10-08T03:02:23.394Z,21.9
2022-10-08T03:03:31.650Z,21.9
2022-10-08T03:04:39.965Z,21.9
2022-10-08T03:05:48.501Z,21.700001
2022-10-08T03:06:56.819Z,21.700001
2022-10-08T03:08:05.145Z,21.700001
2022-10-08T03:09:13.681Z,22.4
2022-10-08T03:10:21.999Z,22.4
2022-10-08T03:11:30.334Z,22.4
2022-10-08T03:12:38.860Z,22.799999
2022-10-08T03:13:47.205Z,22.799999
2022-10-08T03:14:55.545Z,22.799999
2022-10-08T03:16:04.089Z,22.299999
2022-10-08T03:17:12.421Z,22.299999
2022-10-08T03:18:20.782Z,22.299999
2022-10-08T03:19:29.315Z,22.1
2022-10-08T03:20:37.644Z,22.1
2022-10-08T03:21:45.963Z,22.1
2022-10-08T03:22:54.500Z,23.299999
2022-10-08T03:24:02.814Z,23.299999
2022-10-08T03:25:11.160Z,23.299999
2022-10-08T03:26:19.672Z,22.6
2022-10-08T03:27:27.990Z,22.6
2022-10-08T03:28:36.372Z,22.6
2022-10-08T03:29:44.860Z,22.799999
2022-10-08T03:30:53.238Z,22.799999
2022-10-08T03:32:01.485Z,22.799999
2022-10-08T03:33:10.025Z,22.1
2022-10-08T03:34:18.387Z,22.1
2022-10-08T03:35:26.676Z,22.1
2022-10-08T03:36:35.203Z,22
2022-10-08T03:37:43.527Z,22
2022-10-08T03:38:51.851Z,22
2022-10-08T03:40:00.384Z,21.700001
2022-10-08T03:41:08.709Z,21.700001
2022-10-08T03:42:17.045Z,21.700001
2022-10-08T03:43:25.568Z,20.799999
2022-10-08T03:44:33.903Z,20.799999
2022-10-08T03:45:42.245Z,20.799999
2022-10-08T03:46:50.750Z,20.1
2022-10-08T03:47:59.070Z,20.1
2022-10-08T03:49:07.399Z,20.1
2022-10-08T03:50:15.951Z,19.700001
2022-10-08T03:51:24.240Z,19.700001
2022-10-08T03:52:32.565Z,19.700001
2022-10-08T03:53:41.097Z,18.299999
2022-10-08T03:54:49.424Z,18.299999
2022-10-08T03:55:57.746Z,18.299999
2022-10-08T03:57:06.328Z,18.9
2022-10-08T03:58:14.612Z,18.9
2022-10-08T03:59:22.940Z,18.9
2022-10-08T04:00:31.460Z,17.700001
2022-10-08T04:01:39.847Z,17.700001
2022-10-08T04:02:48.240Z,17.700001
2022-10-08T04:03:56.643Z,18.700001
2022-10-08T04:05:04.961Z,18.700001
2022-10-08T04:06:13.312Z,18.700001
2022-10-08T04:07:21.812Z,18.200001
2022-10-08T04:08:30.153Z,18.200001
2022-10-08T04:09:38.486Z,18.200001
2022-10-08T04:10:47.028Z,16.799999
2022-10-08T04:11:55.356Z,16.799999
2022-10-08T04:13:03.664Z,16.799999
2022-10-08T04:14:12.205Z,17.200001
2022-10-08T04:15:20.529Z,17.200001
2022-10-08T04:16:28.844Z,17.200001
2022-10-08T04:17:37.410Z,17.200001
2022-10-08T04:18:45.750Z,17.200001
2022-10-08T04:19:54.060Z,17.200001
2022-10-08T04:21:02.622Z,17.6
2022-10-08T04:22:10.964Z,17.6
2022-10-08T04:23:19.291Z,17.6
2022-10-08T04:24:27.827Z,17
2022-10-08T04:25:36.172Z,17
2022-10-08T04:26:44.505Z,17
2022-10-08T04:27:53.057Z,17
2022-10-08T04:29:01.381Z,17
2022-10-08T04:30:09.713Z,17
2022-10-08T04:31:18.302Z,16.299999
2022-10-08T04:32:26.573Z,16.299999
2022-10-08T04:33:34.902Z,16.299999
2022-10-08T04:34:43.436Z,16.200001
2022-10-08T04:35:54.190Z,16.200001
2022-10-08T04:37:00.079Z,16.200001
2022-10-08T04:38:08.636Z,16.799999
2022-10-08T04:39:16.941Z,16.799999
2022-10-08T04:40:25.264Z,16.799999
2022-10-08T04:41:33.795Z,17.4
2022-10-08T04:42:42.126Z,17.4
2022-10-08T04:43:50.461Z,17.4
2022-10-08T04:44:58.982Z,16.4
2022-10-08T04:46:07.374Z,16.4
2022-10-08T04:47:15.622Z,16.4
2022-10-08T04:48:24.158Z,16.700001
2022-10-08T04:49:32.475Z,16.700001
2022-10-08T04:50:40.815Z,16.700001
2022-10-08T04:51:49.348Z,16.799999
2022-10-08T04:52:57.673Z,16.799999
2022-10-08T04:54:06.036Z,16.799999
2022-10-08T04:55:14.525Z,16.799999
2022-10-08T04:56:22.852Z,16.799999
2022-10-08T04:57:31.211Z,16.799999
2022-10-08T04:58:39.760Z,17.299999
2022-10-08T05:00:06.059Z,17.299999
2022-10-08T05:00:56.411Z,17.299999
2022-10-08T05:02:05.040Z,16.9
2022-10-08T05:03:13.326Z,16.9
2022-10-08T05:04:21.586Z,16.9
2022-10-08T05:05:30.119Z,16.1
2022-10-08T05:06:38.435Z,16.1
2022-10-08T05:07:46.754Z,16.1
2022-10-08T05:08:55.269Z,25.6
2022-10-08T05:10:03.604Z,25.6
2022-10-08T05:11:11.942Z,25.6
2022-10-08T05:12:20.432Z,17
2022-10-08T05:13:28.754Z,17
2022-10-08T05:14:37.055Z,17
2022-10-08T05:15:45.600Z,17.1
2022-10-08T05:16:53.892Z,17.1
2022-10-08T05:18:02.226Z,17.1
2022-10-08T05:19:10.746Z,16.9
2022-10-08T05:20:19.062Z,16.9
2022-10-08T05:21:27.377Z,16.9
2022-10-08T05:22:35.919Z,16.4
2022-10-08T05:23:44.258Z,16.4
2022-10-08T05:24:52.608Z,16.4
2022-10-08T05:26:01.140Z,15.6
2022-10-08T05:27:09.446Z,15.6
2022-10-08T05:28:17.810Z,15.6
2022-10-08T05:29:26.278Z,16.4
2022-10-08T05:30:34.590Z,16.4
2022-10-08T05:31:42.924Z,16.4
2022-10-08T05:32:51.444Z,16.700001
2022-10-08T05:33:59.763Z,16.700001
2022-10-08T05:35:08.090Z,16.700001
2022-10-08T05:36:16.628Z,15.7
2022-10-08T05:37:24.963Z,15.7
2022-10-08T05:38:35.065Z,15.7
2022-10-08T05:39:41.814Z,15.7
2022-10-08T05:40:50.126Z,15.7
2022-10-08T05:41:58.513Z,15.7
2022-10-08T05:43:07.009Z,15.7
2022-10-08T05:44:15.327Z,15.7
2022-10-08T05:45:23.640Z,15.7
2022-10-08T05:46:32.240Z,15.7
2022-10-08T05:47:40.508Z,15.7
2022-10-08T05:48:48.841Z,15.7
2022-10-08T05:49:57.499Z,16.200001
2022-10-08T05:51:05.836Z,16.200001
2022-10-08T05:52:14.153Z,16.200001
2022-10-08T05:53:22.675Z,15.6
2022-10-08T05:54:30.994Z,15.6
2022-10-08T05:55:39.309Z,15.6
2022-10-08T05:56:47.858Z,17.9
2022-10-08T05:57:56.197Z,17.9
2022-10-08T05:59:04.489Z,17.9
2022-10-08T06:00:13.017Z,15.5
2022-10-08T06:01:21.336Z,15.5
2022-10-08T06:02:29.681Z,15.5
2022-10-08T06:03:38.199Z,14.7
2022-10-08T06:04:46.583Z,14.7
2022-10-08T06:05:54.836Z,14.7
2022-10-08T06:07:03.412Z,15.4
2022-10-08T06:08:11.713Z,15.4
2022-10-08T06:09:20.031Z,15.4
2022-10-08T06:10:28.592Z,14.8
2022-10-08T06:11:36.880Z,14.8
2022-10-08T06:12:45.459Z,14.8
2022-10-08T06:13:53.771Z,14.9
2022-10-08T06:15:02.075Z,14.9
2022-10-08T06:16:10.746Z,14.9
2022-10-08T06:17:19.267Z,15
2022-10-08T06:18:27.580Z,15
2022-10-08T06:19:35.916Z,15
2022-10-08T06:20:44.440Z,13.6
2022-10-08T06:21:52.766Z,13.6
2022-10-08T06:23:01.092Z,13.6
2022-10-08T06:24:09.632Z,14.2
2022-10-08T06:25:17.951Z,14.2
2022-10-08T06:26:27.324Z,14.2
2022-10-08T06:27:34.825Z,14.2
2022-10-08T06:28:43.327Z,14.2
2022-10-08T06:29:51.614Z,14.2
2022-10-08T06:31:00.131Z,14.3
2022-10-08T06:32:08.422Z,14.3
2022-10-08T06:33:16.751Z,14.3
2022-10-08T06:34:25.276Z,14.3
2022-10-08T06:35:33.595Z,14.3
2022-10-08T06:36:41.923Z,14.3
2022-10-08T06:37:50.455Z,14
2022-10-08T06:38:58.770Z,14
2022-10-08T06:40:07.090Z,14
2022-10-08T06:41:15.608Z,13.9
2022-10-08T06:42:23.945Z,13.9
2022-10-08T06:43:32.258Z,13.9
2022-10-08T06:44:40.787Z,13.7
2022-10-08T06:45:49.124Z,13.7
2022-10-08T06:46:57.476Z,13.7
2022-10-08T06:48:06.012Z,13.4
2022-10-08T06:49:14.315Z,13.4
2022-10-08T06:50:22.700Z,13.4
2022-10-08T06:51:31.213Z,13.1
2022-10-08T06:52:39.545Z,13.1
2022-10-08T06:53:47.854Z,13.1
2022-10-08T06:54:56.400Z,13.7
2022-10-08T06:56:04.753Z,13.7
2022-10-08T06:57:13.116Z,13.7
2022-10-08T06:58:21.668Z,13.6
2022-10-08T06:59:30.036Z,13.6
2022-10-08T07:00:38.365Z,13.6
2022-10-08T07:01:47.003Z,13.6
2022-10-08T07:02:55.185Z,13.6
2022-10-08T07:04:03.505Z,13.6
2022-10-08T07:05:12.018Z,12.9
2022-10-08T07:06:20.323Z,12.9
2022-10-08T07:07:28.656Z,12.9
2022-10-08T07:08:37.192Z,12
2022-10-08T07:09:45.525Z,12
2022-10-08T07:10:53.830Z,12
2022-10-08T07:12:02.376Z,11.7
2022-10-08T07:13:10.705Z,11.7
2022-10-08T07:14:19.007Z,11.7
2022-10-08T07:15:27.544Z,11.5
2022-10-08T07:16:35.875Z,11.5
2022-10-08T07:17:44.212Z,11.5
2022-10-08T07:18:52.713Z,11.3
2022-10-08T07:20:01.072Z,11.3
2022-10-08T07:21:09.389Z,11.3
2022-10-08T07:22:17.929Z,10.6
2022-10-08T07:23:26.246Z,10.6
2022-10-08T07:24:34.548Z,10.6
2022-10-08T07:25:43.070Z,9.9
2022-10-08T07:26:51.412Z,9.9
2022-10-08T07:27:59.857Z,9.9
2022-10-08T07:29:08.336Z,10.2
2022-10-08T07:30:16.628Z,10.2
2022-10-08T07:31:25.059Z,10.2
2022-10-08T07:32:33.481Z,10
2022-10-08T07:33:41.820Z,10
2022-10-08T07:34:50.134Z,10
2022-10-08T07:35:58.671Z,9.6
2022-10-08T07:37:06.983Z,9.6
2022-10-08T07:38:15.287Z,9.6
2022-10-08T07:39:23.821Z,9
2022-10-08T07:40:32.128Z,9
2022-10-08T07:41:40.447Z,9
2022-10-08T07:42:49.274Z,8.8
2022-10-08T07:43:57.300Z,8.8
2022-10-08T07:45:05.680Z,8.8
2022-10-08T07:46:14.231Z,9
2022-10-08T07:47:22.489Z,9
2022-10-08T07:48:33.978Z,9
2022-10-08T07:49:39.413Z,8.5
2022-10-08T07:50:47.714Z,8.5
2022-10-08T07:51:56.023Z,8.5
2022-10-08T07:53:04.571Z,8.6
2022-10-08T07:54:12.877Z,8.6
2022-10-08T07:55:21.200Z,8.6
2022-10-08T07:56:29.735Z,8.6
2022-10-08T07:57:38.069Z,8.6
2022-10-08T07:58:46.389Z,8.6
2022-10-08T07:59:54.918Z,7.7
2022-10-08T08:01:03.294Z,7.7
2022-10-08T08:02:11.620Z,7.7
2022-10-08T08:03:20.081Z,7.5
2022-10-08T08:04:28.410Z,7.5
2022-10-08T08:05:36.774Z,7.5
2022-10-08T08:06:45.270Z,7.5
2022-10-08T08:07:53.633Z,7.5
2022-10-08T08:09:01.910Z,7.5
2022-10-08T08:10:10.473Z,7.1
2022-10-08T08:11:18.818Z,7.1
2022-10-08T08:12:27.138Z,7.1
2022-10-08T08:13:37.173Z,6.7
2022-10-08T08:14:43.976Z,6.7
2022-10-08T08:15:52.307Z,6.7
2022-10-08T08:17:00.856Z,5.7
2022-10-08T08:18:09.140Z,5.7
2022-10-08T08:19:17.471Z,5.7
2022-10-08T08:20:26.002Z,6.7
2022-10-08T08:21:34.354Z,6.7
2022-10-08T08:22:42.629Z,6.7
2022-10-08T08:23:51.156Z,7
2022-10-08T08:25:00.736Z,7
2022-10-08T08:26:09.046Z,7
2022-10-08T08:27:17.572Z,7.2
2022-10-08T08:28:25.966Z,7.2
2022-10-08T08:29:34.198Z,7.2
2022-10-08T08:30:42.727Z,8.1
2022-10-08T08:31:51.092Z,8.1
2022-10-08T08:32:59.394Z,8.1
2022-10-08T08:34:07.911Z,14
2022-10-08T08:35:16.231Z,14
2022-10-08T08:36:24.543Z,14
2022-10-08T08:37:33.097Z,11.3
2022-10-08T08:38:41.440Z,11.3
2022-10-08T08:39:49.776Z,11.3
2022-10-08T08:40:58.332Z,11.3
2022-10-08T08:42:06.660Z,11.3
2022-10-08T08:43:15.000Z,11.3
2022-10-08T08:44:23.550Z,10.1
2022-10-08T08:45:46.234Z,10.1
2022-10-08T08:46:40.218Z,10.1
2022-10-08T08:47:48.673Z,13.3
2022-10-08T08:48:57.009Z,13.3
2022-10-08T08:50:05.339Z,13.3
2022-10-08T08:51:13.857Z,6.8
2022-10-08T08:52:22.174Z,6.8
2022-10-08T08:53:30.521Z,6.8
2022-10-08T08:54:39.044Z,7.6
2022-10-08T08:55:47.364Z,7.6
2022-10-08T08:56:55.678Z,7.6
2022-10-08T08:58:07.273Z,16.5
2022-10-08T08:59:12.531Z,16.5
2022-10-08T09:00:20.851Z,16.5
2022-10-08T09:01:29.432Z,12.3
2022-10-08T09:02:37.699Z,12.3
2022-10-08T09:03:46.009Z,12.3
2022-10-08T09:04:54.536Z,5.9
2022-10-08T09:06:02.866Z,5.9
2022-10-08T09:07:11.166Z,5.9
2022-10-08T09:08:19.691Z,5.4
2022-10-08T09:09:28.045Z,5.4
2022-10-08T09:10:36.318Z,5.4
2022-10-08T09:11:44.847Z,4.4
2022-10-08T09:12:53.161Z,4.4
2022-10-08T09:14:01.461Z,4.4
2022-10-08T09:15:09.999Z,4.2
2022-10-08T09:16:18.356Z,4.2
2022-10-08T09:17:26.629Z,4.2
2022-10-08T09:18:35.146Z,3.7
2022-10-08T09:19:43.465Z,3.7
2022-10-08T09:20:51.774Z,3.7
2022-10-08T09:22:00.299Z,3.6
2022-10-08T09:23:08.618Z,3.6
2022-10-08T09:24:16.927Z,3.6
2022-10-08T09:25:25.500Z,2.9
2022-10-08T09:26:33.799Z,2.9
2022-10-08T09:27:42.090Z,2.9
2022-10-08T09:28:50.621Z,3.2
2022-10-08T09:29:58.957Z,3.2
2022-10-08T09:31:08.861Z,3.2
2022-10-08T09:32:15.787Z,3.5
2022-10-08T09:33:24.117Z,3.5
2022-10-08T09:34:32.436Z,3.5
2022-10-08T09:35:40.957Z,3.9
2022-10-08T09:36:49.277Z,3.9
2022-10-08T09:37:59.854Z,3.9
2022-10-08T09:39:06.105Z,3.3
2022-10-08T09:40:14.437Z,3.3
2022-10-08T09:41:22.783Z,3.3
2022-10-08T09:42:31.252Z,3.3
2022-10-08T09:43:39.553Z,3.3
2022-10-08T09:44:47.876Z,3.3
2022-10-08T09:45:56.435Z,2.9
2022-10-08T09:47:04.746Z,2.9
2022-10-08T09:48:13.047Z,2.9
2022-10-08T09:49:21.585Z,3.3
2022-10-08T09:50:29.902Z,3.3
2022-10-08T09:51:38.226Z,3.3
2022-10-08T09:52:46.881Z,4.3
2022-10-08T09:53:55.058Z,4.3
2022-10-08T09:55:03.384Z,4.3
2022-10-08T09:56:11.894Z,3.4
2022-10-08T09:57:20.241Z,3.4
2022-10-08T09:58:28.529Z,3.4
2022-10-08T09:59:37.068Z,4
2022-10-08T10:00:45.370Z,4
2022-10-08T10:01:53.688Z,4
2022-10-08T10:03:02.215Z,2.4
2022-10-08T10:04:10.614Z,2.4
2022-10-08T10:05:18.867Z,2.4
2022-10-08T10:06:27.391Z,2.3
2022-10-08T10:07:35.701Z,2.3
2022-10-08T10:08:44.034Z,2.3
2022-10-08T10:09:52.597Z,2.1
2022-10-08T10:11:00.883Z,2.1
2022-10-08T10:12:09.203Z,2.1
2022-10-08T10:13:17.757Z,1.6
2022-10-08T10:14:26.048Z,1.6
2022-10-08T10:15:34.377Z,1.6
2022-10-08T10:16:42.974Z,2.3
2022-10-08T10:17:51.218Z,2.3
2022-10-08T10:18:59.548Z,2.3
2022-10-08T10:20:08.079Z,2.2
2022-10-08T10:21:16.403Z,2.2
2022-10-08T10:22:24.715Z,2.2
2022-10-08T10:23:33.252Z,2
2022-10-08T10:24:41.623Z,2
2022-10-08T10:25:49.948Z,2
2022-10-08T10:26:58.498Z,1.9
2022-10-08T10:28:06.833Z,1.9
2022-10-08T10:29:15.164Z,1.9
2022-10-08T10:30:23.662Z,1.9
2022-10-08T10:31:31.988Z,1.9
2022-10-08T10:32:40.340Z,1.9
2022-10-08T10:33:48.876Z,1.7
2022-10-08T10:34:57.194Z,1.7
2022-10-08T10:36:05.517Z,1.7
2022-10-08T10:37:14.036Z,1.7
2022-10-08T10:38:22.352Z,1.7
2022-10-08T10:39:30.664Z,1.7
2022-10-08T10:40:39.226Z,1.8
2022-10-08T10:41:47.548Z,1.8
2022-10-08T10:42:55.858Z,1.8
2022-10-08T10:44:04.387Z,1.4
2022-10-08T10:45:12.724Z,1.4
2022-10-08T10:46:21.051Z,1.4
2022-10-08T10:47:31.941Z,1.9
2022-10-08T10:48:38.136Z,1.9
2022-10-08T10:49:46.467Z,1.9
2022-10-08T10:50:54.982Z,1.6
2022-10-08T10:52:03.302Z,1.6
2022-10-08T10:53:11.614Z,1.6
2022-10-08T10:54:20.173Z,1
2022-10-08T10:55:28.488Z,1
2022-10-08T10:56:36.812Z,1
2022-10-08T10:57:45.348Z,1.3
2022-10-08T10:58:53.674Z,1.3
2022-10-08T11:00:01.985Z,1.3
2022-10-08T11:01:10.545Z,1.2
2022-10-08T11:02:18.908Z,1.2
2022-10-08T11:03:27.161Z,1.2
2022-10-08T11:04:35.695Z,1.6
2022-10-08T11:05:44.008Z,1.6
2022-10-08T11:06:52.305Z,1.6
2022-10-08T11:08:00.854Z,1.4
2022-10-08T11:09:09.172Z,1.4
2022-10-08T11:10:17.511Z,1.4
2022-10-08T11:11:28.570Z,1.3
2022-10-08T11:12:34.338Z,1.3
2022-10-08T11:13:42.644Z,1.3
2022-10-08T11:14:51.167Z,1.4
2022-10-08T11:15:59.549Z,1.4
2022-10-08T11:17:07.901Z,1.4
2022-10-08T11:18:16.349Z,1.7
2022-10-08T11:19:24.700Z,1.7
2022-10-08T11:20:33.051Z,1.7
2022-10-08T11:21:41.648Z,1.6
2022-10-08T11:22:50.470Z,1.6
2022-10-08T11:23:58.351Z,1.6
2022-10-08T11:25:06.870Z,1.4
2022-10-08T11:26:22.183Z,1.4
2022-10-08T11:27:23.525Z,1.4
2022-10-08T11:28:32.190Z,1.2
2022-10-08T11:29:40.449Z,1.2
2022-10-08T11:30:48.789Z,1.2
2022-10-08T11:31:57.294Z,1.4
2022-10-08T11:33:05.642Z,1.4
2022-10-08T11:34:13.939Z,1.4
2022-10-08T11:35:22.501Z,1.5
2022-10-08T11:36:33.065Z,1.5
2022-10-08T11:37:39.121Z,1.5
2022-10-08T11:38:47.659Z,1.4
2022-10-08T11:39:55.980Z,1.4
2022-10-08T11:41:04.314Z,1.4
2022-10-08T11:42:12.869Z,1.5
2022-10-08T11:43:21.213Z,1.5
2022-10-08T11:44:29.548Z,1.5
2022-10-08T11:45:38.084Z,0.9
2022-10-08T11:46:46.427Z,0.9
2022-10-08T11:47:54.747Z,0.9
2022-10-08T11:49:03.292Z,1.1
2022-10-08T11:50:11.571Z,1.1
2022-10-08T11:51:19.883Z,1.1
2022-10-08T11:52:28.435Z,1.1
2022-10-08T11:53:36.762Z,1.1
2022-10-08T11:54:45.090Z,1.1
2022-10-08T11:55:53.625Z,1.2
2022-10-08T11:57:01.950Z,1.2
2022-10-08T11:58:10.321Z,1.2
2022-10-08T11:59:18.844Z,1.2
2022-10-08T12:00:27.149Z,1.2
2022-10-08T12:01:35.472Z,1.2
2022-10-08T12:02:44.243Z,0.9
2022-10-08T12:03:52.373Z,0.9
2022-10-08T12:05:00.663Z,0.9
2022-10-08T12:06:09.167Z,1
2022-10-08T12:07:17.496Z,1
2022-10-08T12:08:25.809Z,1
2022-10-08T12:09:34.356Z,1
2022-10-08T12:10:42.660Z,1
2022-10-08T12:11:50.970Z,1
2022-10-08T12:12:59.571Z,0.9
2022-10-08T12:14:07.905Z,0.9
2022-10-08T12:15:16.287Z,0.9
2022-10-08T12:16:24.859Z,1
2022-10-08T12:17:33.177Z,1
2022-10-08T12:18:41.500Z,1
2022-10-08T12:19:50.062Z,0.9
2022-10-08T12:20:58.363Z,0.9
2022-10-08T12:22:06.646Z,0.9
2022-10-08T12:23:15.215Z,0.9
2022-10-08T12:24:23.562Z,0.9
2022-10-08T12:25:31.897Z,0.9
2022-10-08T12:26:40.451Z,0.9
2022-10-08T12:27:48.790Z,0.9
2022-10-08T12:28:57.107Z,0.9
2022-10-08T12:30:05.640Z,0.9
2022-10-08T12:31:14.049Z,0.9
2022-10-08T12:32:22.301Z,0.9
2022-10-08T12:33:30.845Z,1.1
2022-10-08T12:34:39.164Z,1.1
2022-10-08T12:35:47.502Z,1.1
2022-10-08T12:36:56.079Z,0.9
2022-10-08T12:38:04.397Z,0.9
2022-10-08T12:39:12.710Z,0.9
2022-10-08T12:40:21.236Z,0.8
2022-10-08T12:41:29.551Z,0.8
2022-10-08T12:42:37.894Z,0.8
2022-10-08T12:43:46.439Z,74.900002
2022-10-08T12:44:54.762Z,74.900002
2022-10-08T12:46:03.086Z,74.900002
2022-10-08T12:47:11.629Z,1.2
2022-10-08T12:48:19.961Z,1.2
2022-10-08T12:49:28.304Z,1.2
2022-10-08T12:50:36.835Z,1.4
2022-10-08T12:51:45.162Z,1.4
2022-10-08T12:52:53.540Z,1.4
2022-10-08T12:54:02.079Z,1.3
2022-10-08T12:55:10.383Z,1.3
2022-10-08T12:56:18.717Z,1.3
2022-10-08T12:57:27.246Z,1.3
2022-10-08T12:58:35.594Z,1.3
2022-10-08T12:59:43.924Z,1.3
2022-10-08T13:00:52.515Z,1.3
2022-10-08T13:02:00.838Z,1.3
2022-10-08T13:03:09.103Z,1.3
2022-10-08T13:04:17.647Z,1.3
2022-10-08T13:05:25.963Z,1.3
2022-10-08T13:06:34.339Z,1.3
2022-10-08T13:07:42.850Z,1.2
2022-10-08T13:08:51.196Z,1.2
2022-10-08T13:09:59.508Z,1.2
2022-10-08T13:11:08.066Z,1.3
2022-10-08T13:12:16.396Z,1.3
2022-10-08T13:13:24.727Z,1.3
2022-10-08T13:14:33.256Z,1.4
2022-10-08T13:15:41.621Z,1.4
2022-10-08T13:16:49.890Z,1.4
2022-10-08T13:17:58.456Z,1.4
2022-10-08T13:19:06.763Z,1.4
2022-10-08T13:20:15.089Z,1.4
2022-10-08T13:21:23.631Z,2.2
2022-10-08T13:22:31.967Z,2.2
2022-10-08T13:23:40.310Z,2.2
2022-10-08T13:24:48.881Z,1.7
2022-10-08T13:25:57.207Z,1.7
2022-10-08T13:27:05.565Z,1.7
2022-10-08T13:28:14.121Z,1.3
2022-10-08T13:29:22.651Z,1.3
2022-10-08T13:30:30.754Z,1.3
2022-10-08T13:31:39.347Z,1.8
2022-10-08T13:32:47.648Z,1.8
2022-10-08T13:33:55.983Z,1.8
2022-10-08T13:35:04.517Z,1.6
2022-10-08T13:36:12.843Z,1.6
2022-10-08T13:37:21.173Z,1.6
2022-10-08T13:38:29.700Z,2.1
2022-10-08T13:39:38.042Z,2.1
2022-10-08T13:40:46.373Z,2.1
2022-10-08T13:41:54.886Z,2.2
2022-10-08T13:43:03.208Z,2.2
2022-10-08T13:44:11.520Z,2.2
2022-10-08T13:45:20.052Z,2.4
2022-10-08T13:46:28.421Z,2.4
2022-10-08T13:47:36.703Z,2.4
2022-10-08T13:48:45.233Z,2.3
2022-10-08T13:49:53.535Z,2.3
2022-10-08T13:51:01.862Z,2.3
2022-10-08T13:52:10.386Z,2.2
2022-10-08T13:53:18.701Z,2.2
2022-10-08T13:54:27.018Z,2.2
2022-10-08T13:55:35.568Z,2.1
2022-10-08T13:56:43.911Z,2.1
2022-10-08T13:57:52.215Z,2.1
2022-10-08T13:59:00.753Z,1
2022-10-08T14:00:09.134Z,1
2022-10-08T14:01:17.436Z,1
2022-10-08T14:02:26.001Z,0.9
2022-10-08T14:03:34.262Z,0.9
2022-10-08T14:04:42.677Z,0.9
2022-10-08T14:05:51.179Z,1
2022-10-08T14:06:59.509Z,1
2022-10-08T14:08:07.839Z,1
2022-10-08T14:09:16.406Z,0.9
2022-10-08T14:10:24.738Z,0.9
2022-10-08T14:11:33.046Z,0.9
2022-10-08T14:12:41.607Z,1.2
2022-10-08T14:13:49.897Z,1.2
2022-10-08T14:14:58.280Z,1.2
2022-10-08T14:16:06.865Z,0.8
2022-10-08T14:17:15.149Z,0.8
2022-10-08T14:18:23.488Z,0.8
2022-10-08T14:19:32.004Z,0.8
2022-10-08T14:20:40.357Z,0.8
2022-10-08T14:21:48.747Z,0.8
2022-10-08T14:22:57.275Z,1
2022-10-08T14:24:06.242Z,1
2022-10-08T14:25:14.324Z,1
2022-10-08T14:26:22.866Z,1
2022-10-08T14:27:31.205Z,1
2022-10-08T14:28:39.590Z,1
2022-10-08T14:29:48.084Z,1
2022-10-08T15:03:06.241Z,0
2022-10-08T15:04:14.587Z,0
2022-10-08T15:05:22.920Z,0
2022-10-08T15:06:31.424Z,1.9
2022-10-08T15:07:39.737Z,1.9
2022-10-08T15:08:48.059Z,1.9
2022-10-08T15:09:56.592Z,2.1
2022-10-08T15:11:04.905Z,2.1
2022-10-08T15:12:13.234Z,2.1
2022-10-08T15:13:21.764Z,1.9
2022-10-08T15:14:32.376Z,1.9
2022-10-08T15:15:38.406Z,1.9
2022-10-08T15:16:47.063Z,2.3
2022-10-08T15:17:55.250Z,2.3
2022-10-08T15:19:03.611Z,2.3
2022-10-08T15:20:12.106Z,2
2022-10-08T15:21:20.446Z,2
2022-10-08T15:22:28.774Z,2
2022-10-08T15:23:37.295Z,2
2022-10-08T15:24:45.630Z,2
2022-10-08T15:25:53.957Z,2
2022-10-08T15:27:02.505Z,2.1
2022-10-08T15:28:10.870Z,2.1
2022-10-08T15:29:19.191Z,2.1
2022-10-08T15:30:27.731Z,2.1
2022-10-08T15:31:36.096Z,2.1
2022-10-08T15:32:44.503Z,2.1
2022-10-08T15:33:52.917Z,2
2022-10-08T15:35:01.299Z,2
2022-10-08T15:36:09.600Z,2
2022-10-08T15:37:18.147Z,2.3
2022-10-08T15:38:26.513Z,2.3
2022-10-08T15:39:35.893Z,2.3
2022-10-08T15:40:43.376Z,1.8